createdAt,value
2022-11-17T00:01:22.277Z,10.34
2022-11-17T00:03:51.136Z,10.34
2022-11-17T00:06:21.736Z,10.37
2022-11-17T00:08:49.423Z,10.35
2022-11-17T00:11:16.447Z,10.37
2022-11-17T00:14:20.446Z,10.36
2022-11-17T00:16:50.141Z,10.36
2022-11-17T00:19:35.574Z,10.34
2022-11-17T00:22:02.610Z,10.33
2022-11-17T00:24:29.519Z,10.28
2022-11-17T00:27:02.287Z,10.29
2022-11-17T00:29:29.980Z,10.28
2022-11-17T00:32:15.538Z,10.19
2022-11-17T00:34:42.778Z,10.10
2022-11-17T00:37:12.068Z,10.08
2022-11-17T00:39:39.090Z,9.98
2022-11-17T00:42:05.949Z,9.99
2022-11-17T00:44:32.930Z,9.97
2022-11-17T00:46:59.893Z,9.96
2022-11-17T00:49:26.963Z,9.95
2022-11-17T00:51:55.498Z,9.82
2022-11-17T00:54:22.690Z,10.00
2022-11-17T00:56:49.818Z,10.05
2022-11-17T00:59:17.090Z,10.09
2022-11-17T01:01:44.171Z,10.15
2022-11-17T01:04:13.653Z,10.20
2022-11-17T01:06:43.482Z,10.24
2022-11-17T01:09:14.687Z,10.28
2022-11-17T01:11:42.616Z,10.28
2022-11-17T01:14:14.211Z,10.27
2022-11-17T01:16:41.367Z,10.23
2022-11-17T01:19:09.092Z,10.22
2022-11-17T01:21:36.093Z,10.19
2022-11-17T01:24:03.168Z,10.13
2022-11-17T01:26:33.038Z,10.08
2022-11-17T01:29:01.731Z,10.01
2022-11-17T01:31:34.618Z,9.94
2022-11-17T01:34:02.023Z,9.90
2022-11-17T01:36:56.132Z,9.89
2022-11-17T01:39:27.330Z,9.88
2022-11-17T01:41:55.410Z,9.90
2022-11-17T01:44:49.170Z,9.95
2022-11-17T01:47:54.863Z,9.99
2022-11-17T01:50:36.691Z,10.04
2022-11-17T01:53:17.591Z,10.07
2022-11-17T01:55:51.330Z,10.13
2022-11-17T01:58:23.948Z,10.20
2022-11-17T02:00:51.897Z,10.19
2022-11-17T02:03:19.098Z,10.19
2022-11-17T02:06:05.811Z,10.21
2022-11-17T02:08:34.840Z,10.24
2022-11-17T02:11:04.175Z,10.24
2022-11-17T02:13:32.184Z,10.27
2022-11-17T02:15:59.307Z,10.25
2022-11-17T02:18:26.747Z,10.29
2022-11-17T02:21:15.410Z,10.33
2022-11-17T02:24:00.770Z,10.36
2022-11-17T02:26:52.424Z,10.37
2022-11-17T02:29:24.531Z,10.40
2022-11-17T02:32:03.169Z,10.23
2022-11-17T02:34:53.091Z,10.38
2022-11-17T02:37:38.357Z,10.41
2022-11-17T02:40:23.668Z,10.40
2022-11-17T02:43:18.689Z,10.43
2022-11-17T02:46:08.769Z,10.47
2022-11-17T02:49:01.410Z,10.53
2022-11-17T02:51:29.649Z,10.52
2022-11-17T02:54:00.359Z,10.51
2022-11-17T02:56:27.338Z,10.52
2022-11-17T02:59:00.374Z,10.55
2022-11-17T03:01:30.345Z,10.58
2022-11-17T03:04:09.459Z,10.62
2022-11-17T03:06:54.451Z,10.63
2022-11-17T03:09:46.032Z,10.64
2022-11-17T03:12:31.938Z,10.66
2022-11-17T03:15:04.145Z,10.64
2022-11-17T03:17:51.861Z,10.65
2022-11-17T03:20:44.968Z,10.67
2022-11-17T03:23:20.949Z,10.68
2022-11-17T03:25:54.961Z,10.67
2022-11-17T03:28:26.345Z,10.68
2022-11-17T03:30:54.325Z,10.69
2022-11-17T03:33:24.668Z,10.72
2022-11-17T03:36:07.293Z,10.73
2022-11-17T03:38:57.649Z,10.75
2022-11-17T03:41:29.187Z,10.78
2022-11-17T03:43:58.947Z,10.81
2022-11-17T03:46:28.817Z,10.83
2022-11-17T03:49:09.731Z,10.84
2022-11-17T03:51:38.478Z,10.84
2022-11-17T03:54:07.167Z,10.83
2022-11-17T03:56:56.169Z,10.81
2022-11-17T03:59:26.486Z,10.79
2022-11-17T04:01:54.339Z,10.78
2022-11-17T04:04:23.649Z,10.69
2022-11-17T04:06:55.547Z,10.66
2022-11-17T04:09:24.620Z,10.67
2022-11-17T04:12:10.213Z,10.73
2022-11-17T04:14:55.737Z,10.75
2022-11-17T04:17:22.847Z,10.81
2022-11-17T04:19:49.735Z,10.79
2022-11-17T04:22:16.568Z,10.82
2022-11-17T04:24:43.447Z,10.79
2022-11-17T04:27:28.966Z,10.70
2022-11-17T04:29:55.953Z,10.64
2022-11-17T04:32:22.950Z,10.62
2022-11-17T04:34:50.687Z,10.62
2022-11-17T04:37:17.640Z,10.61
2022-11-17T04:39:46.218Z,10.66
2022-11-17T04:42:13.192Z,10.49
2022-11-17T04:44:41.008Z,10.64
2022-11-17T04:47:07.888Z,10.50
2022-11-17T04:49:34.818Z,10.66
2022-11-17T04:52:01.726Z,10.67
2022-11-17T04:54:28.874Z,10.75
2022-11-17T04:56:56.545Z,10.81
2022-11-17T04:59:24.492Z,10.84
2022-11-17T05:01:51.764Z,10.81
2022-11-17T05:04:40.608Z,10.80
2022-11-17T05:07:08.704Z,10.81
2022-11-17T05:09:35.908Z,10.73
2022-11-17T05:12:21.636Z,10.69
2022-11-17T05:14:50.507Z,10.67
2022-11-17T05:17:17.758Z,10.66
2022-11-17T05:19:47.219Z,10.66
2022-11-17T05:22:36.035Z,10.66
2022-11-17T05:25:03.732Z,10.64
2022-11-17T05:27:30.622Z,10.54
2022-11-17T05:29:57.619Z,10.70
2022-11-17T05:32:24.546Z,10.73
2022-11-17T05:34:51.712Z,10.68
2022-11-17T05:37:18.847Z,10.66
2022-11-17T05:39:45.888Z,10.65
2022-11-17T05:42:12.800Z,10.64
2022-11-17T05:44:40.168Z,10.60
2022-11-17T05:47:07.231Z,10.57
2022-11-17T05:49:34.139Z,10.51
2022-11-17T05:52:01.022Z,10.59
2022-11-17T05:54:27.989Z,10.58
2022-11-17T05:57:07.107Z,10.69
2022-11-17T05:59:40.688Z,10.75
2022-11-17T06:02:12.850Z,10.73
2022-11-17T06:04:40.329Z,10.65
2022-11-17T06:07:07.899Z,10.55
2022-11-17T06:09:39.737Z,10.58
2022-11-17T06:12:06.751Z,10.56
2022-11-17T06:14:35.698Z,10.55
2022-11-17T06:17:09.821Z,10.58
2022-11-17T06:19:43.402Z,10.63
2022-11-17T06:22:12.714Z,10.68
2022-11-17T06:24:43.346Z,10.71
2022-11-17T06:27:13.764Z,10.75
2022-11-17T06:29:44.639Z,10.76
2022-11-17T06:32:18.192Z,10.81
2022-11-17T06:34:53.842Z,10.82
2022-11-17T06:37:24.110Z,10.82
2022-11-17T06:39:50.979Z,10.84
2022-11-17T06:42:17.890Z,10.90
2022-11-17T06:44:44.870Z,10.92
2022-11-17T06:47:11.833Z,10.91
2022-11-17T06:49:39.362Z,10.98
2022-11-17T06:52:06.320Z,11.00
2022-11-17T06:54:33.338Z,11.02
2022-11-17T06:57:00.375Z,11.05
2022-11-17T06:59:27.412Z,11.05
2022-11-17T07:01:54.438Z,11.04
2022-11-17T07:04:21.500Z,11.08
2022-11-17T07:06:48.545Z,11.04
2022-11-17T07:09:15.497Z,11.06
2022-11-17T07:11:42.466Z,11.09
2022-11-17T07:14:09.576Z,11.07
2022-11-17T07:16:36.646Z,11.07
2022-11-17T07:19:03.911Z,11.12
2022-11-17T07:21:31.363Z,11.11
2022-11-17T07:23:58.387Z,11.09
2022-11-17T07:26:25.481Z,11.11
2022-11-17T07:28:52.456Z,11.07
2022-11-17T07:31:19.509Z,11.06
2022-11-17T07:33:46.715Z,11.07
2022-11-17T07:36:17.496Z,11.06
2022-11-17T07:38:44.536Z,11.17
2022-11-17T07:41:13.880Z,11.27
2022-11-17T07:43:41.264Z,11.34
2022-11-17T07:46:14.138Z,11.41
2022-11-17T07:48:42.937Z,11.48
2022-11-17T07:51:09.957Z,11.51
2022-11-17T07:53:37.167Z,11.48
2022-11-17T07:56:09.931Z,11.53
2022-11-17T07:58:38.597Z,11.60
2022-11-17T08:01:11.040Z,11.65
2022-11-17T08:03:38.599Z,11.71
2022-11-17T08:06:07.867Z,11.73
2022-11-17T08:08:35.777Z,11.75
2022-11-17T08:11:08.687Z,11.81
2022-11-17T08:13:36.494Z,11.79
2022-11-17T08:16:03.918Z,11.77
2022-11-17T08:18:31.665Z,11.71
2022-11-17T08:21:15.416Z,11.67
2022-11-17T08:23:42.690Z,11.65
2022-11-17T08:26:12.085Z,11.63
2022-11-17T08:28:40.402Z,11.68
2022-11-17T08:31:08.599Z,11.72
2022-11-17T08:33:36.137Z,11.77
2022-11-17T08:36:04.911Z,11.82
2022-11-17T08:38:32.143Z,11.86
2022-11-17T08:41:04.820Z,11.88
2022-11-17T08:43:32.439Z,11.93
2022-11-17T08:45:59.657Z,11.99
2022-11-17T08:48:26.615Z,11.99
2022-11-17T08:50:53.577Z,11.93
2022-11-17T08:53:23.442Z,11.95
2022-11-17T08:55:52.063Z,11.94
2022-11-17T08:58:19.012Z,11.98
2022-11-17T09:00:47.704Z,12.05
2022-11-17T09:03:15.333Z,12.10
2022-11-17T09:05:45.334Z,12.15
2022-11-17T09:08:43.871Z,12.15
2022-11-17T09:11:08.290Z,12.20
2022-11-17T09:13:36.055Z,12.25
2022-11-17T09:16:05.018Z,12.35
2022-11-17T09:18:38.674Z,12.41
2022-11-17T09:21:12.132Z,12.37
2022-11-17T09:23:39.813Z,12.37
2022-11-17T09:26:10.050Z,12.39
2022-11-17T09:28:37.513Z,12.40
2022-11-17T09:31:23.778Z,12.45
2022-11-17T09:33:50.947Z,12.45
2022-11-17T09:36:18.086Z,12.47
2022-11-17T09:38:47.184Z,12.47
2022-11-17T09:41:26.531Z,12.42
2022-11-17T09:44:28.539Z,12.35
2022-11-17T09:47:30.948Z,12.30
2022-11-17T09:50:18.335Z,12.28
2022-11-17T09:52:59.231Z,12.19
2022-11-17T09:55:49.983Z,12.03
2022-11-17T09:58:38.958Z,12.23
2022-11-17T10:01:10.688Z,12.36
2022-11-17T10:03:44.931Z,12.44
2022-11-17T10:06:21.825Z,12.53
2022-11-17T10:08:58.385Z,12.61
2022-11-17T10:11:34.145Z,12.67
2022-11-17T10:14:12.461Z,12.64
2022-11-17T10:16:52.939Z,12.64
2022-11-17T10:19:25.779Z,12.67
2022-11-17T10:22:10.761Z,12.66
2022-11-17T10:24:43.651Z,12.67
2022-11-17T10:27:30.934Z,12.70
2022-11-17T10:30:04.547Z,12.74
2022-11-17T10:32:38.131Z,12.79
2022-11-17T10:35:20.092Z,12.79
2022-11-17T10:37:53.097Z,12.73
2022-11-17T10:40:25.750Z,12.73
2022-11-17T10:43:00.143Z,12.78
2022-11-17T10:45:27.490Z,12.75
2022-11-17T10:48:09.495Z,12.84
2022-11-17T10:50:37.367Z,12.80
2022-11-17T10:53:45.113Z,12.77
2022-11-17T10:56:12.886Z,12.79
2022-11-17T10:59:01.436Z,12.86
2022-11-17T11:01:37.447Z,12.91
2022-11-17T11:04:07.501Z,12.88
2022-11-17T11:06:35.972Z,12.83
2022-11-17T11:09:23.348Z,12.75
2022-11-17T11:11:54.612Z,12.73
2022-11-17T11:14:37.244Z,12.70
2022-11-17T11:17:16.062Z,12.72
2022-11-17T11:19:48.691Z,12.73
2022-11-17T11:22:21.819Z,12.81
2022-11-17T11:25:24.651Z,12.82
2022-11-17T11:28:16.334Z,12.79
2022-11-17T11:31:19.332Z,12.81
2022-11-17T11:33:56.772Z,12.83
2022-11-17T11:36:31.372Z,12.81
2022-11-17T11:39:02.263Z,12.85
2022-11-17T11:41:50.921Z,12.85
2022-11-17T11:45:02.792Z,12.84
2022-11-17T11:47:37.859Z,12.84
2022-11-17T11:50:24.217Z,12.81
2022-11-17T11:53:11.671Z,12.85
2022-11-17T11:55:41.550Z,12.86
2022-11-17T11:58:21.516Z,12.85
2022-11-17T12:00:52.410Z,12.85
2022-11-17T12:03:29.847Z,12.93
2022-11-17T12:06:32.021Z,13.01
2022-11-17T12:09:06.747Z,13.02
2022-11-17T12:11:53.210Z,13.04
2022-11-17T12:14:20.421Z,13.09
2022-11-17T12:16:48.658Z,13.11
2022-11-17T12:19:59.692Z,13.15
2022-11-17T12:22:30.131Z,13.20
2022-11-17T12:25:00.378Z,13.24
2022-11-17T12:27:33.572Z,13.30
2022-11-17T12:30:02.532Z,13.35
2022-11-17T12:32:44.771Z,13.43
2022-11-17T12:35:24.577Z,13.43
2022-11-17T12:38:22.321Z,13.42
2022-11-17T12:40:51.497Z,13.46
2022-11-17T12:43:21.472Z,13.45
2022-11-17T12:46:19.436Z,13.46
2022-11-17T12:49:17.550Z,13.46
2022-11-17T12:51:59.820Z,13.46
2022-11-17T12:54:44.135Z,13.46
2022-11-17T12:57:19.836Z,13.44
2022-11-17T13:00:23.811Z,13.35
2022-11-17T13:03:07.751Z,13.35
2022-11-17T13:05:35.804Z,13.36
2022-11-17T13:08:20.070Z,13.47
2022-11-17T13:10:47.779Z,13.62
2022-11-17T13:13:20.410Z,13.69
2022-11-17T13:15:59.739Z,13.74
2022-11-17T13:18:38.063Z,13.71
2022-11-17T13:21:16.450Z,13.67
2022-11-17T13:23:45.567Z,13.66
2022-11-17T13:26:25.028Z,13.61
2022-11-17T13:29:14.742Z,13.59
2022-11-17T13:31:42.451Z,13.63
2022-11-17T13:34:12.739Z,13.63
2022-11-17T13:37:00.842Z,13.59
2022-11-17T13:39:28.694Z,13.62
2022-11-17T13:42:01.443Z,13.62
2022-11-17T13:44:28.952Z,13.65
2022-11-17T13:46:56.336Z,13.57
2022-11-17T13:49:33.491Z,13.71
2022-11-17T13:52:01.406Z,13.73
2022-11-17T13:54:28.581Z,13.68
2022-11-17T13:57:01.655Z,13.62
2022-11-17T13:59:35.330Z,13.51
2022-11-17T14:02:19.294Z,13.56
2022-11-17T14:05:05.178Z,13.57
2022-11-17T14:07:39.632Z,13.58
2022-11-17T14:10:31.410Z,13.58
2022-11-17T14:13:01.765Z,13.56
2022-11-17T14:15:32.292Z,13.57
2022-11-17T14:18:01.251Z,13.60
2022-11-17T14:20:36.094Z,13.60
2022-11-17T14:23:13.501Z,13.56
2022-11-17T14:25:42.619Z,13.51
2022-11-17T14:28:17.592Z,13.47
2022-11-17T14:30:48.249Z,13.47
2022-11-17T14:33:15.172Z,13.48
2022-11-17T14:35:43.090Z,13.44
2022-11-17T14:38:13.852Z,13.38
2022-11-17T14:40:40.850Z,13.31
2022-11-17T14:43:07.903Z,13.30
2022-11-17T14:45:35.901Z,13.17
2022-11-17T14:48:06.176Z,13.19
2022-11-17T14:50:33.338Z,13.16
2022-11-17T14:53:00.450Z,13.12
2022-11-17T14:55:27.979Z,13.07
2022-11-17T14:57:54.966Z,13.09
2022-11-17T15:00:22.179Z,13.04
2022-11-17T15:02:49.731Z,12.98
2022-11-17T15:05:17.092Z,12.97
2022-11-17T15:07:45.011Z,12.94
2022-11-17T15:10:12.667Z,12.97
2022-11-17T15:12:39.572Z,12.92
2022-11-17T15:15:07.050Z,12.88
2022-11-17T15:17:34.028Z,12.91
2022-11-17T15:20:01.060Z,12.95
2022-11-17T15:22:28.770Z,12.98
2022-11-17T15:24:56.690Z,12.94
2022-11-17T15:27:23.970Z,12.98
2022-11-17T15:29:51.090Z,12.96
2022-11-17T15:32:17.990Z,12.88
2022-11-17T15:34:45.011Z,12.82
2022-11-17T15:37:11.982Z,12.77
2022-11-17T15:39:39.731Z,12.74
2022-11-17T15:42:06.697Z,12.73
2022-11-17T15:44:33.741Z,12.67
2022-11-17T15:47:00.597Z,12.63
2022-11-17T15:49:27.570Z,12.54
2022-11-17T15:51:54.772Z,12.46
2022-11-17T15:54:23.811Z,12.35
2022-11-17T15:56:51.890Z,12.25
2022-11-17T15:59:19.318Z,12.16
2022-11-17T16:01:47.031Z,12.06
2022-11-17T16:04:18.364Z,12.00
2022-11-17T16:06:46.900Z,11.95
2022-11-17T16:09:15.324Z,11.92
2022-11-17T16:11:43.436Z,11.92
2022-11-17T16:14:10.556Z,11.95
2022-11-17T16:16:39.822Z,11.97
2022-11-17T16:19:07.082Z,11.97
2022-11-17T16:21:34.144Z,11.87
2022-11-17T16:24:02.427Z,12.02
2022-11-17T16:26:30.298Z,12.03
2022-11-17T16:29:02.452Z,12.05
2022-11-17T16:31:31.700Z,12.05
2022-11-17T16:33:59.964Z,12.05
2022-11-17T16:36:34.583Z,12.06
2022-11-17T16:39:04.814Z,12.03
2022-11-17T16:41:37.500Z,12.08
2022-11-17T16:44:16.476Z,12.07
2022-11-17T16:46:45.971Z,12.08
2022-11-17T16:49:16.513Z,12.08
2022-11-17T16:51:56.503Z,12.12
2022-11-17T16:54:24.036Z,12.11
2022-11-17T16:56:50.980Z,12.14
2022-11-17T16:59:18.605Z,12.08
2022-11-17T17:01:45.910Z,12.05
2022-11-17T17:04:14.750Z,12.08
2022-11-17T17:06:44.272Z,12.08
2022-11-17T17:09:13.972Z,12.12
2022-11-17T17:11:42.213Z,12.13
2022-11-17T17:14:13.150Z,12.13
2022-11-17T17:16:40.456Z,12.13
2022-11-17T17:19:09.263Z,12.16
2022-11-17T17:21:37.570Z,12.17
2022-11-17T17:24:05.332Z,12.14
2022-11-17T17:26:33.992Z,12.18
2022-11-17T17:29:02.540Z,12.16
2022-11-17T17:31:37.587Z,12.14
2022-11-17T17:34:06.414Z,12.17
2022-11-17T17:36:34.211Z,12.16
2022-11-17T17:39:02.892Z,12.17
2022-11-17T17:41:32.450Z,12.19
2022-11-17T17:44:03.211Z,12.20
2022-11-17T17:46:31.829Z,12.22
2022-11-17T17:48:59.456Z,12.22
2022-11-17T17:51:28.761Z,12.23
2022-11-17T17:53:58.420Z,12.22
2022-11-17T17:56:26.346Z,12.25
2022-11-17T17:58:57.013Z,12.26
2022-11-17T18:01:28.291Z,12.25
2022-11-17T18:04:01.652Z,12.26
2022-11-17T18:06:28.771Z,12.25
2022-11-17T18:08:57.091Z,12.24
2022-11-17T18:11:25.994Z,12.25
2022-11-17T18:13:53.657Z,12.24
2022-11-17T18:16:25.171Z,12.22
2022-11-17T18:19:03.896Z,12.24
2022-11-17T18:21:31.814Z,12.27
2022-11-17T18:24:01.390Z,12.28
2022-11-17T18:26:31.811Z,12.27
2022-11-17T18:29:07.571Z,12.27
2022-11-17T18:31:36.373Z,12.30
2022-11-17T18:34:06.692Z,12.31
2022-11-17T18:36:35.987Z,12.33
2022-11-17T18:39:03.822Z,12.33
2022-11-17T18:41:34.191Z,12.36
2022-11-17T18:44:01.497Z,12.36
2022-11-17T18:46:30.853Z,12.31
2022-11-17T18:48:58.492Z,12.30
2022-11-17T18:51:28.450Z,12.30
2022-11-17T18:53:59.230Z,12.28
2022-11-17T18:56:33.490Z,12.28
2022-11-17T18:59:04.229Z,12.31
2022-11-17T19:01:31.767Z,12.30
2022-11-17T19:04:02.611Z,12.31
2022-11-17T19:06:30.936Z,12.28
2022-11-17T19:08:59.428Z,12.29
2022-11-17T19:11:28.566Z,12.28
2022-11-17T19:13:55.572Z,12.25
2022-11-17T19:16:26.539Z,12.27
2022-11-17T19:18:56.721Z,12.26
2022-11-17T19:21:26.459Z,12.33
2022-11-17T19:23:56.049Z,12.34
2022-11-17T19:26:26.212Z,12.35
2022-11-17T19:29:05.011Z,12.38
2022-11-17T19:31:32.977Z,12.38
2022-11-17T19:33:59.903Z,12.38
2022-11-17T19:36:32.663Z,12.41
2022-11-17T19:39:03.777Z,12.37
2022-11-17T19:41:36.789Z,12.36
2022-11-17T19:44:07.449Z,12.35
2022-11-17T19:46:37.039Z,12.35
2022-11-17T19:49:06.545Z,12.27
2022-11-17T19:51:39.334Z,12.22
2022-11-17T19:54:09.013Z,12.16
2022-11-17T19:56:37.071Z,12.11
2022-11-17T19:59:05.024Z,12.14
2022-11-17T20:01:34.192Z,12.15
2022-11-17T20:04:02.050Z,12.11
2022-11-17T20:06:35.010Z,11.99
2022-11-17T20:09:10.428Z,12.01
2022-11-17T20:11:38.372Z,11.93
2022-11-17T20:14:05.732Z,11.83
2022-11-17T20:16:32.851Z,11.65
2022-11-17T20:19:02.617Z,11.60
2022-11-17T20:21:31.340Z,11.53
2022-11-17T20:23:59.397Z,11.45
2022-11-17T20:26:32.576Z,11.37
2022-11-17T20:29:00.714Z,11.35
2022-11-17T20:31:31.491Z,11.29
2022-11-17T20:34:00.889Z,11.19
2022-11-17T20:36:30.587Z,11.07
2022-11-17T20:39:00.454Z,10.99
2022-11-17T20:41:28.530Z,10.93
2022-11-17T20:43:57.377Z,10.84
2022-11-17T20:46:24.969Z,10.73
2022-11-17T20:48:52.240Z,10.63
2022-11-17T20:51:21.179Z,10.54
2022-11-17T20:53:48.132Z,10.49
2022-11-17T20:56:16.941Z,10.41
2022-11-17T20:58:44.844Z,10.33
2022-11-17T21:01:15.299Z,10.29
2022-11-17T21:03:43.259Z,10.24
2022-11-17T21:06:10.773Z,10.19
2022-11-17T21:08:40.301Z,10.10
2022-11-17T21:11:10.620Z,10.09
2022-11-17T21:13:38.051Z,10.08
2022-11-17T21:16:06.094Z,10.06
2022-11-17T21:18:33.230Z,9.99
2022-11-17T21:21:00.992Z,9.94
2022-11-17T21:23:28.702Z,9.85
2022-11-17T21:25:55.618Z,9.84
2022-11-17T21:28:23.206Z,9.85
2022-11-17T21:30:50.181Z,9.88
2022-11-17T21:33:17.270Z,9.93
2022-11-17T21:35:44.211Z,9.99
2022-11-17T21:38:11.601Z,10.07
2022-11-17T21:40:38.541Z,10.17
2022-11-17T21:43:05.732Z,10.18
2022-11-17T21:45:33.731Z,10.16
2022-11-17T21:48:00.771Z,10.19
2022-11-17T21:50:27.738Z,10.19
2022-11-17T21:52:54.852Z,10.18
2022-11-17T21:55:21.665Z,10.21
2022-11-17T21:57:52.266Z,10.20
2022-11-17T22:00:19.596Z,10.21
2022-11-17T22:02:46.536Z,10.21
2022-11-17T22:05:13.676Z,10.21
2022-11-17T22:07:40.656Z,10.20
2022-11-17T22:10:08.186Z,10.18
2022-11-17T22:12:35.326Z,10.12
2022-11-17T22:15:05.042Z,10.22
2022-11-17T22:17:34.635Z,10.19
2022-11-17T22:20:01.678Z,10.16
2022-11-17T22:22:28.691Z,10.08
2022-11-17T22:24:55.875Z,10.15
2022-11-17T22:27:26.486Z,10.16
2022-11-17T22:29:53.570Z,10.22
2022-11-17T22:32:20.932Z,10.24
2022-11-17T22:34:48.315Z,10.25
2022-11-17T22:37:15.317Z,10.22
2022-11-17T22:39:42.408Z,10.16
2022-11-17T22:42:09.307Z,10.18
2022-11-17T22:44:36.332Z,10.15
2022-11-17T22:47:03.288Z,10.23
2022-11-17T22:49:30.318Z,10.24
2022-11-17T22:52:08.754Z,10.27
2022-11-17T22:54:35.994Z,10.43
2022-11-17T22:57:02.949Z,10.47
2022-11-17T22:59:30.823Z,10.54
2022-11-17T23:01:57.736Z,10.59
2022-11-17T23:04:24.789Z,10.61
2022-11-17T23:06:52.206Z,10.70
2022-11-17T23:09:19.350Z,10.73
2022-11-17T23:11:46.517Z,10.78
2022-11-17T23:14:15.049Z,10.80
2022-11-17T23:16:42.518Z,10.81
2022-11-17T23:19:13.434Z,10.83
2022-11-17T23:21:42.097Z,10.92
2022-11-17T23:24:14.707Z,10.98
2022-11-17T23:26:42.276Z,11.01
2022-11-17T23:29:09.695Z,11.07
2022-11-17T23:31:37.033Z,11.08
2022-11-17T23:34:04.008Z,11.08
2022-11-17T23:36:31.148Z,11.08
2022-11-17T23:38:58.288Z,10.98
2022-11-17T23:41:25.655Z,10.95
2022-11-17T23:43:54.460Z,10.89
2022-11-17T23:46:24.824Z,10.92
2022-11-17T23:48:53.316Z,10.94
2022-11-17T23:51:22.873Z,10.97
2022-11-17T23:53:49.973Z,10.96
2022-11-17T23:56:19.350Z,11.00
2022-11-17T23:58:46.485Z,11.00
